sensor_id;sensor_type;location;lat;lon;timestamp;P1;durP1;ratioP1;P2;durP2;ratioP2
47021;SDS011;32779;52.264;6.154;2023-02-15T00:01:38;64.57;;;38.63;;
47021;SDS011;32779;52.264;6.154;2023-02-15T00:04:05;66.63;;;37.47;;
47021;SDS011;32779;52.264;6.154;2023-02-15T00:06:31;61.22;;;38.03;;
47021;SDS011;32779;52.264;6.154;2023-02-15T00:08:56;66.68;;;38.75;;
47021;SDS011;32779;52.264;6.154;2023-02-15T00:11:23;67.45;;;38.83;;
47021;SDS011;32779;52.264;6.154;2023-02-15T00:14:08;67.22;;;38.33;;
47021;SDS011;32779;52.264;6.154;2023-02-15T00:16:44;69.65;;;41.75;;
47021;SDS011;32779;52.264;6.154;2023-02-15T00:21:36;69.67;;;39.03;;
47021;SDS011;32779;52.264;6.154;2023-02-15T00:24:03;68.07;;;37.90;;
47021;SDS011;32779;52.264;6.154;2023-02-15T00:26:31;75.43;;;41.28;;
47021;SDS011;32779;52.264;6.154;2023-02-15T00:28:57;73.35;;;40.03;;
47021;SDS011;32779;52.264;6.154;2023-02-15T00:31:24;68.97;;;38.47;;
47021;SDS011;32779;52.264;6.154;2023-02-15T00:33:50;68.85;;;39.20;;
47021;SDS011;32779;52.264;6.154;2023-02-15T00:36:15;64.40;;;38.08;;
47021;SDS011;32779;52.264;6.154;2023-02-15T00:38:41;65.80;;;37.75;;
47021;SDS011;32779;52.264;6.154;2023-02-15T00:41:07;63.65;;;38.20;;
47021;SDS011;32779;52.264;6.154;2023-02-15T00:43:35;65.60;;;37.20;;
47021;SDS011;32779;52.264;6.154;2023-02-15T00:48:27;64.07;;;34.75;;
47021;SDS011;32779;52.264;6.154;2023-02-15T00:50:53;65.63;;;37.20;;
47021;SDS011;32779;52.264;6.154;2023-02-15T00:53:21;61.30;;;34.72;;
47021;SDS011;32779;52.264;6.154;2023-02-15T00:55:47;69.57;;;37.50;;
47021;SDS011;32779;52.264;6.154;2023-02-15T00:58:13;67.30;;;38.13;;
47021;SDS011;32779;52.264;6.154;2023-02-15T01:00:40;67.90;;;37.67;;
47021;SDS011;32779;52.264;6.154;2023-02-15T01:03:08;63.83;;;36.15;;
47021;SDS011;32779;52.264;6.154;2023-02-15T01:05:34;67.25;;;37.53;;
47021;SDS011;32779;52.264;6.154;2023-02-15T01:08:00;57.63;;;36.20;;
47021;SDS011;32779;52.264;6.154;2023-02-15T01:12:52;63.60;;;37.03;;
47021;SDS011;32779;52.264;6.154;2023-02-15T01:15:19;70.32;;;38.95;;
47021;SDS011;32779;52.264;6.154;2023-02-15T01:17:45;68.43;;;37.58;;
47021;SDS011;32779;52.264;6.154;2023-02-15T01:20:16;63.22;;;37.47;;
47021;SDS011;32779;52.264;6.154;2023-02-15T01:22:43;59.95;;;36.33;;
47021;SDS011;32779;52.264;6.154;2023-02-15T01:25:08;63.85;;;36.85;;
47021;SDS011;32779;52.264;6.154;2023-02-15T01:27:34;70.40;;;39.08;;
47021;SDS011;32779;52.264;6.154;2023-02-15T01:30:00;64.25;;;38.55;;
47021;SDS011;32779;52.264;6.154;2023-02-15T01:32:25;64.25;;;38.20;;
47021;SDS011;32779;52.264;6.154;2023-02-15T01:34:51;66.53;;;38.03;;
47021;SDS011;32779;52.264;6.154;2023-02-15T01:37:17;70.50;;;39.00;;
47021;SDS011;32779;52.264;6.154;2023-02-15T01:39:43;58.67;;;35.65;;
47021;SDS011;32779;52.264;6.154;2023-02-15T01:42:12;63.10;;;37.35;;
47021;SDS011;32779;52.264;6.154;2023-02-15T01:47:13;62.00;;;34.78;;
47021;SDS011;32779;52.264;6.154;2023-02-15T01:49:43;63.40;;;37.53;;
47021;SDS011;32779;52.264;6.154;2023-02-15T01:52:12;58.92;;;35.78;;
47021;SDS011;32779;52.264;6.154;2023-02-15T01:54:40;61.67;;;35.83;;
47021;SDS011;32779;52.264;6.154;2023-02-15T01:57:09;62.22;;;35.83;;
47021;SDS011;32779;52.264;6.154;2023-02-15T01:59:39;66.38;;;37.83;;
47021;SDS011;32779;52.264;6.154;2023-02-15T02:02:07;61.50;;;36.17;;
47021;SDS011;32779;52.264;6.154;2023-02-15T02:04:39;60.03;;;36.33;;
47021;SDS011;32779;52.264;6.154;2023-02-15T02:07:12;61.00;;;37.83;;
47021;SDS011;32779;52.264;6.154;2023-02-15T02:09:41;57.67;;;35.15;;
47021;SDS011;32779;52.264;6.154;2023-02-15T02:12:07;65.78;;;36.70;;
47021;SDS011;32779;52.264;6.154;2023-02-15T02:14:34;63.03;;;35.58;;
47021;SDS011;32779;52.264;6.154;2023-02-15T02:17:16;68.18;;;37.40;;
47021;SDS011;32779;52.264;6.154;2023-02-15T02:28:38;57.55;;;34.85;;
47021;SDS011;32779;52.264;6.154;2023-02-15T02:34:08;70.05;;;37.97;;
47021;SDS011;32779;52.264;6.154;2023-02-15T02:46:26;55.53;;;32.20;;
47021;SDS011;32779;52.264;6.154;2023-02-15T02:48:25;60.78;;;33.40;;
47021;SDS011;32779;52.264;6.154;2023-02-15T02:50:54;59.47;;;33.20;;
47021;SDS011;32779;52.264;6.154;2023-02-15T02:53:19;65.50;;;34.22;;
47021;SDS011;32779;52.264;6.154;2023-02-15T03:01:03;60.05;;;33.55;;
47021;SDS011;32779;52.264;6.154;2023-02-15T03:03:38;58.30;;;30.85;;
47021;SDS011;32779;52.264;6.154;2023-02-15T03:06:11;53.88;;;31.00;;
47021;SDS011;32779;52.264;6.154;2023-02-15T03:08:45;57.17;;;32.47;;
47021;SDS011;32779;52.264;6.154;2023-02-15T03:11:23;59.03;;;32.60;;
47021;SDS011;32779;52.264;6.154;2023-02-15T03:13:48;59.53;;;32.50;;
47021;SDS011;32779;52.264;6.154;2023-02-15T03:16:14;54.70;;;31.13;;
47021;SDS011;32779;52.264;6.154;2023-02-15T03:18:55;55.35;;;31.83;;
47021;SDS011;32779;52.264;6.154;2023-02-15T03:22:05;58.35;;;32.47;;
47021;SDS011;32779;52.264;6.154;2023-02-15T03:24:37;54.35;;;31.17;;
47021;SDS011;32779;52.264;6.154;2023-02-15T03:27:11;59.28;;;32.92;;
47021;SDS011;32779;52.264;6.154;2023-02-15T03:29:43;60.00;;;33.22;;
47021;SDS011;32779;52.264;6.154;2023-02-15T03:32:12;56.33;;;30.92;;
47021;SDS011;32779;52.264;6.154;2023-02-15T03:34:40;54.10;;;30.73;;
47021;SDS011;32779;52.264;6.154;2023-02-15T03:47:28;57.00;;;30.48;;
47021;SDS011;32779;52.264;6.154;2023-02-15T03:52:25;60.97;;;31.83;;
47021;SDS011;32779;52.264;6.154;2023-02-15T03:54:53;54.42;;;30.98;;
47021;SDS011;32779;52.264;6.154;2023-02-15T03:57:20;54.20;;;30.00;;
47021;SDS011;32779;52.264;6.154;2023-02-15T04:05:44;56.80;;;30.98;;
47021;SDS011;32779;52.264;6.154;2023-02-15T04:08:10;52.03;;;30.02;;
47021;SDS011;32779;52.264;6.154;2023-02-15T04:10:36;54.38;;;29.83;;
47021;SDS011;32779;52.264;6.154;2023-02-15T04:13:21;56.30;;;31.02;;
47021;SDS011;32779;52.264;6.154;2023-02-15T04:15:48;55.67;;;30.60;;
47021;SDS011;32779;52.264;6.154;2023-02-15T04:18:32;50.72;;;28.58;;
47021;SDS011;32779;52.264;6.154;2023-02-15T04:21:17;51.97;;;29.15;;
47021;SDS011;32779;52.264;6.154;2023-02-15T04:24:02;55.65;;;29.77;;
47021;SDS011;32779;52.264;6.154;2023-02-15T04:26:46;53.40;;;30.48;;
47021;SDS011;32779;52.264;6.154;2023-02-15T04:31:39;52.93;;;30.43;;
47021;SDS011;32779;52.264;6.154;2023-02-15T04:34:05;51.45;;;28.70;;
47021;SDS011;32779;52.264;6.154;2023-02-15T04:36:30;47.70;;;27.90;;
47021;SDS011;32779;52.264;6.154;2023-02-15T04:38:56;57.78;;;30.65;;
47021;SDS011;32779;52.264;6.154;2023-02-15T04:41:21;52.10;;;31.10;;
47021;SDS011;32779;52.264;6.154;2023-02-15T04:43:47;55.95;;;30.98;;
47021;SDS011;32779;52.264;6.154;2023-02-15T04:46:13;56.22;;;32.22;;
47021;SDS011;32779;52.264;6.154;2023-02-15T04:48:38;52.75;;;32.35;;
47021;SDS011;32779;52.264;6.154;2023-02-15T04:51:07;55.07;;;31.93;;
47021;SDS011;32779;52.264;6.154;2023-02-15T04:53:33;54.97;;;31.77;;
47021;SDS011;32779;52.264;6.154;2023-02-15T04:55:59;58.80;;;31.30;;
47021;SDS011;32779;52.264;6.154;2023-02-15T04:58:24;60.42;;;31.92;;
47021;SDS011;32779;52.264;6.154;2023-02-15T05:00:50;53.70;;;31.03;;
47021;SDS011;32779;52.264;6.154;2023-02-15T05:03:16;58.33;;;33.05;;
47021;SDS011;32779;52.264;6.154;2023-02-15T05:05:42;57.60;;;30.80;;
47021;SDS011;32779;52.264;6.154;2023-02-15T05:08:07;57.25;;;31.48;;
47021;SDS011;32779;52.264;6.154;2023-02-15T05:10:33;51.67;;;28.88;;
47021;SDS011;32779;52.264;6.154;2023-02-15T05:12:59;53.50;;;30.17;;
47021;SDS011;32779;52.264;6.154;2023-02-15T05:15:24;58.63;;;31.53;;
47021;SDS011;32779;52.264;6.154;2023-02-15T05:17:50;63.00;;;29.98;;
47021;SDS011;32779;52.264;6.154;2023-02-15T05:20:15;66.18;;;34.08;;
47021;SDS011;32779;52.264;6.154;2023-02-15T05:22:42;59.03;;;32.33;;
47021;SDS011;32779;52.264;6.154;2023-02-15T05:25:08;58.20;;;31.88;;
47021;SDS011;32779;52.264;6.154;2023-02-15T05:27:52;57.13;;;30.55;;
47021;SDS011;32779;52.264;6.154;2023-02-15T05:30:37;56.00;;;30.25;;
47021;SDS011;32779;52.264;6.154;2023-02-15T05:33:04;56.00;;;32.25;;
47021;SDS011;32779;52.264;6.154;2023-02-15T05:35:31;56.42;;;31.42;;
47021;SDS011;32779;52.264;6.154;2023-02-15T05:37:57;55.90;;;31.05;;
47021;SDS011;32779;52.264;6.154;2023-02-15T05:40:22;60.58;;;30.45;;
47021;SDS011;32779;52.264;6.154;2023-02-15T05:42:48;54.22;;;29.13;;
47021;SDS011;32779;52.264;6.154;2023-02-15T05:45:14;56.00;;;30.15;;
47021;SDS011;32779;52.264;6.154;2023-02-15T05:47:40;53.00;;;29.92;;
47021;SDS011;32779;52.264;6.154;2023-02-15T05:50:06;53.08;;;29.33;;
47021;SDS011;32779;52.264;6.154;2023-02-15T05:54:58;53.92;;;28.17;;
47021;SDS011;32779;52.264;6.154;2023-02-15T05:57:25;55.85;;;30.75;;
47021;SDS011;32779;52.264;6.154;2023-02-15T05:59:51;53.40;;;29.85;;
47021;SDS011;32779;52.264;6.154;2023-02-15T06:02:17;59.28;;;31.05;;
47021;SDS011;32779;52.264;6.154;2023-02-15T06:04:43;61.28;;;31.25;;
47021;SDS011;32779;52.264;6.154;2023-02-15T06:07:09;58.38;;;32.38;;
47021;SDS011;32779;52.264;6.154;2023-02-15T06:09:34;56.25;;;30.27;;
47021;SDS011;32779;52.264;6.154;2023-02-15T06:12:00;51.40;;;30.25;;
47021;SDS011;32779;52.264;6.154;2023-02-15T06:14:25;52.80;;;30.63;;
47021;SDS011;32779;52.264;6.154;2023-02-15T06:16:51;52.90;;;29.33;;
47021;SDS011;32779;52.264;6.154;2023-02-15T06:19:16;57.80;;;32.33;;
47021;SDS011;32779;52.264;6.154;2023-02-15T06:21:42;58.95;;;31.38;;
47021;SDS011;32779;52.264;6.154;2023-02-15T06:24:08;56.00;;;31.45;;
47021;SDS011;32779;52.264;6.154;2023-02-15T06:26:34;62.92;;;31.60;;
47021;SDS011;32779;52.264;6.154;2023-02-15T06:29:00;55.88;;;30.48;;
47021;SDS011;32779;52.264;6.154;2023-02-15T06:31:25;53.22;;;30.45;;
47021;SDS011;32779;52.264;6.154;2023-02-15T06:33:51;59.35;;;29.75;;
47021;SDS011;32779;52.264;6.154;2023-02-15T06:36:16;56.60;;;30.67;;
47021;SDS011;32779;52.264;6.154;2023-02-15T06:38:42;58.30;;;30.52;;
47021;SDS011;32779;52.264;6.154;2023-02-15T06:41:07;56.47;;;30.98;;
47021;SDS011;32779;52.264;6.154;2023-02-15T06:43:33;56.53;;;31.15;;
47021;SDS011;32779;52.264;6.154;2023-02-15T06:45:59;63.10;;;32.70;;
47021;SDS011;32779;52.264;6.154;2023-02-15T06:48:25;56.47;;;31.60;;
47021;SDS011;32779;52.264;6.154;2023-02-15T06:50:51;58.58;;;30.40;;
47021;SDS011;32779;52.264;6.154;2023-02-15T06:53:17;56.33;;;30.65;;
47021;SDS011;32779;52.264;6.154;2023-02-15T06:55:42;61.42;;;31.30;;
47021;SDS011;32779;52.264;6.154;2023-02-15T06:58:08;203.70;;;38.47;;
47021;SDS011;32779;52.264;6.154;2023-02-15T07:00:34;59.05;;;32.50;;
47021;SDS011;32779;52.264;6.154;2023-02-15T07:02:59;65.05;;;33.30;;
47021;SDS011;32779;52.264;6.154;2023-02-15T07:05:27;64.25;;;31.73;;
47021;SDS011;32779;52.264;6.154;2023-02-15T07:07:56;56.80;;;30.73;;
47021;SDS011;32779;52.264;6.154;2023-02-15T07:10:23;53.88;;;30.88;;
47021;SDS011;32779;52.264;6.154;2023-02-15T07:12:48;53.00;;;30.73;;
47021;SDS011;32779;52.264;6.154;2023-02-15T07:15:17;55.25;;;31.45;;
47021;SDS011;32779;52.264;6.154;2023-02-15T07:17:45;66.70;;;31.95;;
47021;SDS011;32779;52.264;6.154;2023-02-15T07:20:18;57.65;;;31.65;;
47021;SDS011;32779;52.264;6.154;2023-02-15T07:22:46;49.55;;;29.45;;
47021;SDS011;32779;52.264;6.154;2023-02-15T07:27:38;58.55;;;31.08;;
47021;SDS011;32779;52.264;6.154;2023-02-15T07:30:05;63.33;;;32.08;;
47021;SDS011;32779;52.264;6.154;2023-02-15T07:32:32;60.58;;;32.65;;
47021;SDS011;32779;52.264;6.154;2023-02-15T07:34:59;57.75;;;31.15;;
47021;SDS011;32779;52.264;6.154;2023-02-15T07:37:25;64.40;;;32.55;;
47021;SDS011;32779;52.264;6.154;2023-02-15T07:39:52;61.25;;;32.58;;
47021;SDS011;32779;52.264;6.154;2023-02-15T07:42:17;57.88;;;31.58;;
47021;SDS011;32779;52.264;6.154;2023-02-15T07:44:44;55.63;;;31.52;;
47021;SDS011;32779;52.264;6.154;2023-02-15T07:47:10;63.35;;;32.75;;
47021;SDS011;32779;52.264;6.154;2023-02-15T07:49:37;58.30;;;32.05;;
47021;SDS011;32779;52.264;6.154;2023-02-15T07:52:03;60.92;;;32.95;;
47021;SDS011;32779;52.264;6.154;2023-02-15T07:54:28;65.40;;;33.95;;
47021;SDS011;32779;52.264;6.154;2023-02-15T07:56:54;58.25;;;32.85;;
47021;SDS011;32779;52.264;6.154;2023-02-15T07:59:20;56.10;;;32.45;;
47021;SDS011;32779;52.264;6.154;2023-02-15T08:01:46;66.40;;;34.80;;
47021;SDS011;32779;52.264;6.154;2023-02-15T08:04:11;60.03;;;34.72;;
47021;SDS011;32779;52.264;6.154;2023-02-15T08:06:37;62.03;;;33.38;;
47021;SDS011;32779;52.264;6.154;2023-02-15T08:09:04;66.22;;;33.55;;
47021;SDS011;32779;52.264;6.154;2023-02-15T08:11:32;60.28;;;33.25;;
47021;SDS011;32779;52.264;6.154;2023-02-15T08:14:12;63.88;;;33.47;;
47021;SDS011;32779;52.264;6.154;2023-02-15T08:16:41;61.10;;;34.03;;
47021;SDS011;32779;52.264;6.154;2023-02-15T08:19:18;56.88;;;32.17;;
47021;SDS011;32779;52.264;6.154;2023-02-15T08:21:48;54.55;;;32.38;;
47021;SDS011;32779;52.264;6.154;2023-02-15T08:24:16;57.70;;;33.05;;
47021;SDS011;32779;52.264;6.154;2023-02-15T08:26:44;58.15;;;32.08;;
47021;SDS011;32779;52.264;6.154;2023-02-15T08:29:11;58.33;;;32.10;;
47021;SDS011;32779;52.264;6.154;2023-02-15T08:31:38;60.53;;;33.80;;
47021;SDS011;32779;52.264;6.154;2023-02-15T08:34:06;56.33;;;32.67;;
47021;SDS011;32779;52.264;6.154;2023-02-15T08:36:33;64.30;;;32.55;;
47021;SDS011;32779;52.264;6.154;2023-02-15T08:38:59;61.80;;;33.08;;
47021;SDS011;32779;52.264;6.154;2023-02-15T08:41:30;59.47;;;33.95;;
47021;SDS011;32779;52.264;6.154;2023-02-15T08:44:05;60.13;;;34.50;;
47021;SDS011;32779;52.264;6.154;2023-02-15T08:46:33;63.38;;;34.00;;
47021;SDS011;32779;52.264;6.154;2023-02-15T08:49:00;59.03;;;33.08;;
47021;SDS011;32779;52.264;6.154;2023-02-15T08:51:27;61.90;;;33.15;;
47021;SDS011;32779;52.264;6.154;2023-02-15T08:53:55;60.85;;;33.58;;
47021;SDS011;32779;52.264;6.154;2023-02-15T08:56:27;59.10;;;33.35;;
47021;SDS011;32779;52.264;6.154;2023-02-15T08:58:55;60.65;;;33.08;;
47021;SDS011;32779;52.264;6.154;2023-02-15T09:03:49;63.75;;;33.55;;
47021;SDS011;32779;52.264;6.154;2023-02-15T09:06:17;55.20;;;33.67;;
47021;SDS011;32779;52.264;6.154;2023-02-15T09:11:10;65.85;;;33.40;;
47021;SDS011;32779;52.264;6.154;2023-02-15T09:13:36;62.05;;;34.42;;
47021;SDS011;32779;52.264;6.154;2023-02-15T09:16:04;68.45;;;34.33;;
47021;SDS011;32779;52.264;6.154;2023-02-15T09:18:32;62.15;;;33.25;;
47021;SDS011;32779;52.264;6.154;2023-02-15T09:21:04;58.08;;;33.30;;
47021;SDS011;32779;52.264;6.154;2023-02-15T09:23:31;63.47;;;34.45;;
47021;SDS011;32779;52.264;6.154;2023-02-15T09:25:56;62.83;;;34.90;;
47021;SDS011;32779;52.264;6.154;2023-02-15T09:28:26;64.10;;;33.85;;
47021;SDS011;32779;52.264;6.154;2023-02-15T09:30:51;67.55;;;34.65;;
47021;SDS011;32779;52.264;6.154;2023-02-15T09:35:43;61.90;;;32.15;;
47021;SDS011;32779;52.264;6.154;2023-02-15T09:38:09;55.70;;;33.58;;
47021;SDS011;32779;52.264;6.154;2023-02-15T09:40:38;55.88;;;31.58;;
47021;SDS011;32779;52.264;6.154;2023-02-15T09:43:20;64.35;;;32.90;;
47021;SDS011;32779;52.264;6.154;2023-02-15T09:46:05;57.08;;;32.80;;
47021;SDS011;32779;52.264;6.154;2023-02-15T09:48:42;53.50;;;31.83;;
47021;SDS011;32779;52.264;6.154;2023-02-15T09:51:28;59.42;;;32.65;;
47021;SDS011;32779;52.264;6.154;2023-02-15T09:59:55;59.92;;;33.00;;
47021;SDS011;32779;52.264;6.154;2023-02-15T10:02:41;57.92;;;31.48;;
47021;SDS011;32779;52.264;6.154;2023-02-15T10:08:04;61.72;;;33.60;;
47021;SDS011;32779;52.264;6.154;2023-02-15T10:19:09;54.15;;;30.73;;
47021;SDS011;32779;52.264;6.154;2023-02-15T10:22:05;60.45;;;31.17;;
47021;SDS011;32779;52.264;6.154;2023-02-15T10:27:25;51.95;;;30.55;;
47021;SDS011;32779;52.264;6.154;2023-02-15T10:30:10;56.25;;;31.33;;
47021;SDS011;32779;52.264;6.154;2023-02-15T10:38:21;54.80;;;30.70;;
47021;SDS011;32779;52.264;6.154;2023-02-15T10:58:10;52.38;;;31.00;;
47021;SDS011;32779;52.264;6.154;2023-02-15T11:00:57;51.05;;;30.52;;
47021;SDS011;32779;52.264;6.154;2023-02-15T11:08:40;57.20;;;31.40;;
47021;SDS011;32779;52.264;6.154;2023-02-15T11:11:21;52.58;;;30.88;;
47021;SDS011;32779;52.264;6.154;2023-02-15T11:13:53;50.10;;;30.52;;
47021;SDS011;32779;52.264;6.154;2023-02-15T11:16:25;56.15;;;31.48;;
47021;SDS011;32779;52.264;6.154;2023-02-15T11:19:01;51.72;;;29.92;;
47021;SDS011;32779;52.264;6.154;2023-02-15T11:21:43;56.42;;;31.42;;
47021;SDS011;32779;52.264;6.154;2023-02-15T11:24:15;60.05;;;31.50;;
47021;SDS011;32779;52.264;6.154;2023-02-15T11:31:49;53.70;;;30.33;;
47021;SDS011;32779;52.264;6.154;2023-02-15T11:34:24;54.08;;;29.50;;
47021;SDS011;32779;52.264;6.154;2023-02-15T11:36:58;48.92;;;29.85;;
47021;SDS011;32779;52.264;6.154;2023-02-15T11:39:30;52.30;;;29.92;;
47021;SDS011;32779;52.264;6.154;2023-02-15T11:41:57;51.17;;;30.17;;
47021;SDS011;32779;52.264;6.154;2023-02-15T11:44:31;50.10;;;28.45;;
47021;SDS011;32779;52.264;6.154;2023-02-15T11:47:01;54.40;;;28.73;;
47021;SDS011;32779;52.264;6.154;2023-02-15T11:51:57;48.45;;;27.67;;
47021;SDS011;32779;52.264;6.154;2023-02-15T11:54:26;45.97;;;27.77;;
47021;SDS011;32779;52.264;6.154;2023-02-15T11:56:56;52.88;;;28.95;;
47021;SDS011;32779;52.264;6.154;2023-02-15T11:59:29;55.35;;;28.63;;
47021;SDS011;32779;52.264;6.154;2023-02-15T12:01:59;45.42;;;26.95;;
47021;SDS011;32779;52.264;6.154;2023-02-15T12:04:44;46.08;;;27.58;;
47021;SDS011;32779;52.264;6.154;2023-02-15T12:07:25;49.10;;;27.67;;
47021;SDS011;32779;52.264;6.154;2023-02-15T12:09:59;49.53;;;27.90;;
47021;SDS011;32779;52.264;6.154;2023-02-15T12:12:32;49.22;;;28.25;;
47021;SDS011;32779;52.264;6.154;2023-02-15T12:15:06;44.05;;;26.70;;
47021;SDS011;32779;52.264;6.154;2023-02-15T12:17:34;43.78;;;25.58;;
47021;SDS011;32779;52.264;6.154;2023-02-15T12:20:27;45.17;;;26.52;;
47021;SDS011;32779;52.264;6.154;2023-02-15T12:22:55;45.92;;;27.15;;
47021;SDS011;32779;52.264;6.154;2023-02-15T12:25:49;45.37;;;28.10;;
47021;SDS011;32779;52.264;6.154;2023-02-15T12:28:22;46.17;;;26.40;;
47021;SDS011;32779;52.264;6.154;2023-02-15T12:30:57;44.88;;;26.73;;
47021;SDS011;32779;52.264;6.154;2023-02-15T12:36:20;46.15;;;25.25;;
47021;SDS011;32779;52.264;6.154;2023-02-15T12:39:05;47.67;;;26.35;;
47021;SDS011;32779;52.264;6.154;2023-02-15T12:44:23;49.78;;;24.90;;
47021;SDS011;32779;52.264;6.154;2023-02-15T12:46:59;41.33;;;24.13;;
47021;SDS011;32779;52.264;6.154;2023-02-15T12:49:44;46.97;;;25.48;;
47021;SDS011;32779;52.264;6.154;2023-02-15T12:52:28;41.13;;;24.50;;
47021;SDS011;32779;52.264;6.154;2023-02-15T12:54:53;44.53;;;24.92;;
47021;SDS011;32779;52.264;6.154;2023-02-15T12:57:32;43.70;;;24.70;;
47021;SDS011;32779;52.264;6.154;2023-02-15T13:00:44;45.03;;;25.10;;
47021;SDS011;32779;52.264;6.154;2023-02-15T13:02:46;46.40;;;25.65;;
47021;SDS011;32779;52.264;6.154;2023-02-15T13:07:56;44.50;;;25.80;;
47021;SDS011;32779;52.264;6.154;2023-02-15T13:10:26;42.60;;;24.85;;
47021;SDS011;32779;52.264;6.154;2023-02-15T13:12:58;44.40;;;25.83;;
47021;SDS011;32779;52.264;6.154;2023-02-15T13:17:57;45.55;;;25.05;;
47021;SDS011;32779;52.264;6.154;2023-02-15T13:20:24;44.08;;;25.20;;
47021;SDS011;32779;52.264;6.154;2023-02-15T13:22:53;43.78;;;23.83;;
47021;SDS011;32779;52.264;6.154;2023-02-15T13:25:24;41.55;;;24.77;;
47021;SDS011;32779;52.264;6.154;2023-02-15T13:27:54;44.33;;;25.27;;
47021;SDS011;32779;52.264;6.154;2023-02-15T13:30:33;41.75;;;24.13;;
47021;SDS011;32779;52.264;6.154;2023-02-15T13:33:03;48.65;;;25.95;;
47021;SDS011;32779;52.264;6.154;2023-02-15T13:35:56;48.22;;;25.02;;
47021;SDS011;32779;52.264;6.154;2023-02-15T13:41:04;46.08;;;26.40;;
47021;SDS011;32779;52.264;6.154;2023-02-15T13:52:21;41.45;;;24.30;;
47021;SDS011;32779;52.264;6.154;2023-02-15T13:54:59;46.30;;;25.75;;
47021;SDS011;32779;52.264;6.154;2023-02-15T13:57:34;47.35;;;26.33;;
47021;SDS011;32779;52.264;6.154;2023-02-15T14:00:22;42.43;;;25.43;;
47021;SDS011;32779;52.264;6.154;2023-02-15T14:11:06;45.72;;;26.15;;
47021;SDS011;32779;52.264;6.154;2023-02-15T14:19:10;46.05;;;25.02;;
47021;SDS011;32779;52.264;6.154;2023-02-15T14:25:05;45.45;;;26.67;;
47021;SDS011;32779;52.264;6.154;2023-02-15T14:27:59;44.00;;;25.50;;
47021;SDS011;32779;52.264;6.154;2023-02-15T14:30:41;46.63;;;26.65;;
47021;SDS011;32779;52.264;6.154;2023-02-15T14:35:39;43.40;;;25.10;;
47021;SDS011;32779;52.264;6.154;2023-02-15T14:38:13;42.50;;;26.88;;
47021;SDS011;32779;52.264;6.154;2023-02-15T14:41:09;44.85;;;26.40;;
47021;SDS011;32779;52.264;6.154;2023-02-15T14:46:42;47.05;;;25.67;;
47021;SDS011;32779;52.264;6.154;2023-02-15T14:49:11;45.60;;;26.57;;
47021;SDS011;32779;52.264;6.154;2023-02-15T14:54:09;44.45;;;25.65;;
47021;SDS011;32779;52.264;6.154;2023-02-15T14:56:35;43.08;;;25.90;;
47021;SDS011;32779;52.264;6.154;2023-02-15T15:04:42;41.72;;;25.50;;
47021;SDS011;32779;52.264;6.154;2023-02-15T15:12:49;45.42;;;26.92;;
47021;SDS011;32779;52.264;6.154;2023-02-15T15:20:37;46.20;;;27.55;;
47021;SDS011;32779;52.264;6.154;2023-02-15T15:28:10;49.20;;;28.50;;
47021;SDS011;32779;52.264;6.154;2023-02-15T15:31:20;48.65;;;27.35;;
47021;SDS011;32779;52.264;6.154;2023-02-15T15:34:14;50.08;;;28.10;;
47021;SDS011;32779;52.264;6.154;2023-02-15T15:36:50;49.25;;;27.80;;
47021;SDS011;32779;52.264;6.154;2023-02-15T15:40:00;50.13;;;28.83;;
47021;SDS011;32779;52.264;6.154;2023-02-15T15:50:45;47.53;;;27.67;;
47021;SDS011;32779;52.264;6.154;2023-02-15T15:53:17;49.72;;;28.98;;
47021;SDS011;32779;52.264;6.154;2023-02-15T15:55:52;52.45;;;28.38;;
47021;SDS011;32779;52.264;6.154;2023-02-15T15:58:24;52.20;;;29.42;;
47021;SDS011;32779;52.264;6.154;2023-02-15T16:00:50;52.92;;;29.65;;
47021;SDS011;32779;52.264;6.154;2023-02-15T16:03:24;48.08;;;29.08;;
47021;SDS011;32779;52.264;6.154;2023-02-15T16:05:52;46.67;;;29.27;;
47021;SDS011;32779;52.264;6.154;2023-02-15T16:08:27;48.10;;;29.35;;
47021;SDS011;32779;52.264;6.154;2023-02-15T16:10:58;60.28;;;33.45;;
47021;SDS011;32779;52.264;6.154;2023-02-15T16:13:25;56.08;;;31.73;;
47021;SDS011;32779;52.264;6.154;2023-02-15T16:15:52;51.60;;;31.13;;
47021;SDS011;32779;52.264;6.154;2023-02-15T16:18:21;57.33;;;32.83;;
47021;SDS011;32779;52.264;6.154;2023-02-15T16:20:57;51.92;;;30.35;;
47021;SDS011;32779;52.264;6.154;2023-02-15T16:26:39;53.40;;;30.65;;
47021;SDS011;32779;52.264;6.154;2023-02-15T16:29:30;55.55;;;32.30;;
47021;SDS011;32779;52.264;6.154;2023-02-15T16:31:58;63.78;;;33.25;;
47021;SDS011;32779;52.264;6.154;2023-02-15T16:34:49;59.85;;;32.40;;
47021;SDS011;32779;52.264;6.154;2023-02-15T16:37:20;57.40;;;33.00;;
47021;SDS011;32779;52.264;6.154;2023-02-15T16:39:48;54.00;;;32.78;;
47021;SDS011;32779;52.264;6.154;2023-02-15T16:42:15;57.72;;;33.20;;
47021;SDS011;32779;52.264;6.154;2023-02-15T16:44:41;59.90;;;34.53;;
47021;SDS011;32779;52.264;6.154;2023-02-15T16:47:17;60.55;;;34.60;;
47021;SDS011;32779;52.264;6.154;2023-02-15T16:49:51;61.40;;;33.70;;
47021;SDS011;32779;52.264;6.154;2023-02-15T16:52:23;59.33;;;34.10;;
47021;SDS011;32779;52.264;6.154;2023-02-15T16:54:53;64.00;;;33.42;;
47021;SDS011;32779;52.264;6.154;2023-02-15T16:57:29;60.00;;;33.53;;
47021;SDS011;32779;52.264;6.154;2023-02-15T17:00:04;57.80;;;33.00;;
47021;SDS011;32779;52.264;6.154;2023-02-15T17:02:33;60.70;;;34.38;;
47021;SDS011;32779;52.264;6.154;2023-02-15T17:05:13;58.28;;;33.15;;
47021;SDS011;32779;52.264;6.154;2023-02-15T17:07:51;61.10;;;33.95;;
47021;SDS011;32779;52.264;6.154;2023-02-15T17:10:27;67.68;;;36.10;;
47021;SDS011;32779;52.264;6.154;2023-02-15T17:13:11;63.42;;;36.15;;
47021;SDS011;32779;52.264;6.154;2023-02-15T17:18:20;59.42;;;35.53;;
47021;SDS011;32779;52.264;6.154;2023-02-15T17:20:48;59.35;;;33.47;;
47021;SDS011;32779;52.264;6.154;2023-02-15T17:26:02;56.05;;;33.92;;
47021;SDS011;32779;52.264;6.154;2023-02-15T17:28:44;63.17;;;35.00;;
47021;SDS011;32779;52.264;6.154;2023-02-15T17:31:15;60.33;;;34.58;;
47021;SDS011;32779;52.264;6.154;2023-02-15T17:33:42;61.92;;;35.38;;
47021;SDS011;32779;52.264;6.154;2023-02-15T17:36:18;68.32;;;35.85;;
47021;SDS011;32779;52.264;6.154;2023-02-15T17:41:29;64.22;;;36.30;;
47021;SDS011;32779;52.264;6.154;2023-02-15T17:43:56;61.08;;;35.78;;
47021;SDS011;32779;52.264;6.154;2023-02-15T17:46:22;67.22;;;36.80;;
47021;SDS011;32779;52.264;6.154;2023-02-15T17:48:52;61.53;;;36.47;;
47021;SDS011;32779;52.264;6.154;2023-02-15T17:51:20;68.93;;;37.63;;
47021;SDS011;32779;52.264;6.154;2023-02-15T17:53:46;63.95;;;36.35;;
47021;SDS011;32779;52.264;6.154;2023-02-15T17:56:31;63.10;;;36.92;;
47021;SDS011;32779;52.264;6.154;2023-02-15T17:58:58;69.57;;;37.90;;
47021;SDS011;32779;52.264;6.154;2023-02-15T18:01:24;70.13;;;38.00;;
47021;SDS011;32779;52.264;6.154;2023-02-15T18:04:12;64.85;;;37.25;;
47021;SDS011;32779;52.264;6.154;2023-02-15T18:06:57;61.65;;;36.78;;
47021;SDS011;32779;52.264;6.154;2023-02-15T18:09:42;68.18;;;36.80;;
47021;SDS011;32779;52.264;6.154;2023-02-15T18:12:27;65.75;;;36.65;;
47021;SDS011;32779;52.264;6.154;2023-02-15T18:14:55;67.70;;;36.95;;
47021;SDS011;32779;52.264;6.154;2023-02-15T18:17:24;57.38;;;34.80;;